Airport Name : Wright Patterson AFB

Other Name : Wright Patterson

ICAO : KFFO

IATA : FFO

FAA : FFO

Latitude : 39.826111

Longitude : -84.048332

Country : United States

Local Date and Time : 10/15/2018 5:18:00 PM

 

TAF (Terminal Aerodrome Forecast)

TAF KFFO 151900Z 1519/1701 32012KT 9999 BKN012 QNH2994INS BECMG 1520/1521 33012KT 9999 BKN020 QNH2994INS BECMG 1522/1523 33009KT 9999 SCT025 QNH2994INS WND 27006KT AFT 1609 BECMG 1615/1616 25012G18KT 9999 FEW050 QNH3020INS TX12/1520Z TN00/1610Z

 

METAR (METeorological Aerodrome Report)

KFFO 152016Z AUTO 28011KT 10SM BKN026 OVC032 11/06 A3013 RMK AO2 CIG 024 RWY05L SLP207

KFFO 152006Z AUTO 28012KT 10SM SCT021 OVC030 11/06 A3012 RMK AO2 SLP204

KFFO 151956Z AUTO 28010G17KT 10SM BKN021 OVC030 11/06 A3011 RMK AO2 BKN V OVC SLP200 T01100063

KFFO 151941Z AUTO 27010KT 10SM OVC021 11/07 A3011 RMK AO2 OVC V BKN SLP200

KFFO 151856Z 27010KT 10SM BKN016 OVC026 11/08 A3011 RMK AO2A BKN V OVC SLP200 T01080075

KFFO 151756Z AUTO 29013KT 10SM BKN015 OVC034 12/09 A3009 RMK AO2 CIG 013 RWY05L SLP193 60004 T01160088 10133 20115 52013

KFFO 151749Z 28012KT 10SM BKN017 OVC034 12/09 A3009 RMK AO2A CIG 013 RWY05L SLP193